createdAt,value
2023-02-22T00:02:25.512Z,100116.77
2023-02-22T00:04:54.294Z,100121.04
2023-02-22T00:07:23.901Z,100123.91
2023-02-22T00:09:51.924Z,100126.83
2023-02-22T00:12:20.836Z,100127.34
2023-02-22T00:14:48.879Z,100127.52
2023-02-22T00:17:16.767Z,100130.27
2023-02-22T00:19:44.737Z,100129.94
2023-02-22T00:22:12.678Z,100134.05
2023-02-22T00:24:41.466Z,100135.80
2023-02-22T00:27:09.437Z,100133.29
2023-02-22T00:29:37.503Z,100132.16
2023-02-22T00:32:07.259Z,100135.81
2023-02-22T00:34:35.385Z,100140.84
2023-02-22T00:37:04.484Z,100139.36
2023-02-22T00:39:32.605Z,100135.78
2023-02-22T00:42:00.766Z,100141.46
2023-02-22T00:44:30.889Z,100140.80
2023-02-22T00:46:59.166Z,100145.26
2023-02-22T00:49:27.211Z,100142.34
2023-02-22T00:51:55.364Z,100143.19
2023-02-22T00:54:23.576Z,100144.43
2023-02-22T00:56:52.025Z,100149.27
2023-02-22T00:59:20.087Z,100155.85
2023-02-22T01:01:47.994Z,100160.70
2023-02-22T01:04:16.230Z,100165.90
2023-02-22T01:06:44.669Z,100167.67
2023-02-22T01:09:12.703Z,100170.95
2023-02-22T01:11:42.594Z,100168.27
2023-02-22T01:14:11.902Z,100166.42
2023-02-22T01:16:39.900Z,100168.00
2023-02-22T01:19:07.830Z,100170.94
2023-02-22T01:21:35.846Z,100173.35
2023-02-22T01:24:03.987Z,100172.17
2023-02-22T01:26:31.941Z,100180.91
2023-02-22T01:29:00.012Z,100185.73
2023-02-22T01:31:28.145Z,100186.60
2023-02-22T01:33:56.155Z,100192.09
2023-02-22T01:36:24.154Z,100197.24
2023-02-22T01:38:52.092Z,100203.09
2023-02-22T01:41:22.735Z,100200.55
2023-02-22T01:43:50.923Z,100202.27
2023-02-22T01:46:25.971Z,100203.48
2023-02-22T01:49:00.196Z,100202.50
2023-02-22T01:51:37.666Z,100203.20
2023-02-22T01:54:20.351Z,100205.62
2023-02-22T01:56:57.942Z,100205.98
2023-02-22T01:59:26.459Z,100204.64
2023-02-22T02:01:54.362Z,100208.73
2023-02-22T02:04:25.758Z,100208.59
2023-02-22T02:07:00.621Z,100208.77
2023-02-22T02:09:34.782Z,100209.64
2023-02-22T02:12:05.363Z,100219.88
2023-02-22T02:14:33.697Z,100224.33
2023-02-22T02:17:02.112Z,100226.04
2023-02-22T02:19:44.764Z,100227.39
2023-02-22T02:22:27.703Z,100234.22
2023-02-22T02:24:55.672Z,100230.45
2023-02-22T02:27:28.044Z,100231.64
2023-02-22T02:30:18.587Z,100230.27
2023-02-22T02:32:54.412Z,100234.19
2023-02-22T02:35:29.460Z,100237.08
2023-02-22T02:38:19.021Z,100236.04
2023-02-22T02:41:06.937Z,100242.71
2023-02-22T02:43:47.242Z,100247.15
2023-02-22T02:46:21.413Z,100248.53
2023-02-22T02:48:59.827Z,100245.60
2023-02-22T02:51:36.972Z,100243.39
2023-02-22T02:54:07.682Z,100245.95
2023-02-22T02:56:35.611Z,100243.90
2023-02-22T02:59:04.200Z,100245.44
2023-02-22T03:02:14.658Z,100245.45
2023-02-22T03:05:07.616Z,100245.95
2023-02-22T03:08:09.989Z,100249.04
2023-02-22T03:11:15.838Z,100251.27
2023-02-22T03:13:52.088Z,100258.12
2023-02-22T03:16:39.795Z,100258.30
2023-02-22T03:19:13.547Z,100256.94
2023-02-22T03:21:53.185Z,100263.77
2023-02-22T03:24:30.575Z,100264.80
2023-02-22T03:27:21.808Z,100268.20
2023-02-22T03:29:54.780Z,100272.65
2023-02-22T03:32:29.578Z,100278.27
2023-02-22T03:35:02.982Z,100276.90
2023-02-22T03:37:35.067Z,100280.30
2023-02-22T03:40:17.068Z,100281.14
2023-02-22T03:42:52.207Z,100279.27
2023-02-22T03:45:24.850Z,100282.83
2023-02-22T03:48:02.888Z,100287.59
2023-02-22T03:50:35.970Z,100292.02
2023-02-22T03:53:05.685Z,100294.20
2023-02-22T03:55:35.055Z,100295.05
2023-02-22T03:58:10.325Z,100295.52
2023-02-22T04:00:38.905Z,100298.94
2023-02-22T04:03:06.921Z,100297.71
2023-02-22T04:09:46.031Z,100305.85
2023-02-22T04:12:14.631Z,100303.61
2023-02-22T04:14:55.827Z,100305.47
2023-02-22T04:17:24.282Z,100311.59
2023-02-22T04:19:52.445Z,100315.48
2023-02-22T04:22:20.534Z,100317.86
2023-02-22T04:24:49.206Z,100319.88
2023-02-22T04:27:18.710Z,100325.49
2023-02-22T04:29:47.705Z,100327.04
2023-02-22T04:32:16.883Z,100328.77
2023-02-22T04:34:45.179Z,100323.48
2023-02-22T04:37:13.551Z,100328.08
2023-02-22T04:39:41.909Z,100332.17
2023-02-22T04:42:11.026Z,100330.69
2023-02-22T04:44:39.411Z,100331.24
2023-02-22T04:47:07.582Z,100330.06
2023-02-22T04:49:37.412Z,100333.66
2023-02-22T04:52:06.801Z,100331.29
2023-02-22T04:54:37.973Z,100330.45
2023-02-22T04:57:06.006Z,100331.79
2023-02-22T04:59:35.104Z,100332.64
2023-02-22T05:02:04.030Z,100338.27
2023-02-22T05:04:32.096Z,100333.50
2023-02-22T05:07:00.233Z,100332.14
2023-02-22T05:09:28.751Z,100336.06
2023-02-22T05:11:56.992Z,100340.35
2023-02-22T05:14:28.442Z,100350.95
2023-02-22T05:16:58.417Z,100352.20
2023-02-22T05:19:26.838Z,100352.55
2023-02-22T05:21:56.664Z,100358.55
2023-02-22T05:24:24.943Z,100360.08
2023-02-22T05:26:53.549Z,100361.13
2023-02-22T05:36:56.365Z,100369.88
2023-02-22T05:39:24.990Z,100377.56
2023-02-22T05:41:53.197Z,100385.44
2023-02-22T05:44:21.693Z,100385.10
2023-02-22T05:46:49.820Z,100388.83
2023-02-22T05:49:18.228Z,100390.55
2023-02-22T05:51:46.202Z,100395.83
2023-02-22T05:54:14.165Z,100400.97
2023-02-22T05:56:42.442Z,100400.63
2023-02-22T05:59:10.441Z,100402.69
2023-02-22T06:01:38.350Z,100404.74
2023-02-22T06:04:06.558Z,100410.04
2023-02-22T06:06:34.974Z,100413.64
2023-02-22T06:09:03.221Z,100416.71
2023-02-22T06:11:31.476Z,100423.39
2023-02-22T06:14:00.264Z,100424.09
2023-02-22T06:16:28.455Z,100426.13
2023-02-22T06:18:56.532Z,100426.64
2023-02-22T06:21:24.502Z,100426.99
2023-02-22T06:23:52.653Z,100434.16
2023-02-22T06:26:20.645Z,100437.42
2023-02-22T06:28:49.409Z,100442.20
2023-02-22T06:31:17.850Z,100445.62
2023-02-22T06:33:46.185Z,100449.54
2023-02-22T06:36:14.439Z,100452.78
2023-02-22T06:38:43.271Z,100455.02
2023-02-22T06:41:11.315Z,100456.39
2023-02-22T06:43:39.268Z,100464.09
2023-02-22T06:46:11.538Z,100470.10
2023-02-22T06:48:40.473Z,100467.03
2023-02-22T06:51:09.730Z,100473.71
2023-02-22T06:53:38.555Z,100473.05
2023-02-22T06:56:07.205Z,100473.73
2023-02-22T06:58:35.174Z,100479.38
2023-02-22T07:01:04.233Z,100473.91
2023-02-22T07:03:32.685Z,100481.80
2023-02-22T07:06:00.918Z,100476.83
2023-02-22T07:08:29.535Z,100476.33
2023-02-22T07:10:57.573Z,100475.81
2023-02-22T07:13:25.598Z,100477.18
2023-02-22T07:15:53.644Z,100478.39
2023-02-22T07:18:21.902Z,100483.34
2023-02-22T07:20:50.677Z,100491.55
2023-02-22T07:23:18.993Z,100493.25
2023-02-22T07:25:47.055Z,100497.17
2023-02-22T07:28:15.916Z,100500.09
2023-02-22T07:30:43.883Z,100493.91
2023-02-22T07:33:13.514Z,100493.74
2023-02-22T07:35:47.305Z,100488.93
2023-02-22T07:38:17.898Z,100493.55
2023-02-22T07:40:46.415Z,100490.44
2023-02-22T07:43:19.294Z,100492.83
2023-02-22T07:45:49.529Z,100497.61
2023-02-22T07:48:19.998Z,100499.16
2023-02-22T07:50:48.948Z,100496.25
2023-02-22T07:53:23.561Z,100496.59
2023-02-22T07:55:52.175Z,100492.81
2023-02-22T07:58:23.630Z,100492.27
2023-02-22T08:00:51.778Z,100490.38
2023-02-22T08:03:22.162Z,100494.84
2023-02-22T08:05:53.522Z,100497.42
2023-02-22T08:08:22.283Z,100500.00
2023-02-22T08:10:52.375Z,100498.62
2023-02-22T08:13:22.353Z,100498.60
2023-02-22T08:15:53.323Z,100501.85
2023-02-22T08:18:24.753Z,100497.19
2023-02-22T08:20:54.269Z,100502.98
2023-02-22T08:23:25.621Z,100501.41
2023-02-22T08:25:54.813Z,100502.09
2023-02-22T08:28:24.822Z,100506.00
2023-02-22T08:30:53.454Z,100503.40
2023-02-22T08:33:22.076Z,100498.77
2023-02-22T08:35:51.921Z,100502.16
2023-02-22T08:38:29.590Z,100500.75
2023-02-22T08:40:57.804Z,100503.12
2023-02-22T08:43:26.281Z,100502.25
2023-02-22T08:45:57.325Z,100505.46
2023-02-22T08:48:25.784Z,100509.88
2023-02-22T08:50:54.041Z,100510.02
2023-02-22T08:53:22.111Z,100511.39
2023-02-22T08:55:50.007Z,100512.35
2023-02-22T08:58:17.997Z,100516.58
2023-02-22T09:00:46.081Z,100518.40
2023-02-22T09:03:15.800Z,100519.71
2023-02-22T09:05:44.731Z,100519.14
2023-02-22T09:08:13.508Z,100520.11
2023-02-22T09:10:41.625Z,100523.75
2023-02-22T09:13:09.765Z,100522.91
2023-02-22T09:15:39.800Z,100523.91
2023-02-22T09:18:10.594Z,100527.08
2023-02-22T09:20:38.783Z,100527.69
2023-02-22T09:23:10.077Z,100532.14
2023-02-22T09:25:41.097Z,100531.41
2023-02-22T09:28:09.852Z,100528.30
2023-02-22T09:30:38.196Z,100524.86
2023-02-22T09:33:15.749Z,100530.70
2023-02-22T09:35:49.868Z,100529.70
2023-02-22T09:38:22.905Z,100528.35
2023-02-22T09:40:55.083Z,100534.73
2023-02-22T09:43:42.231Z,100529.80
2023-02-22T09:46:29.848Z,100532.58
2023-02-22T09:49:16.950Z,100533.95
2023-02-22T09:52:06.187Z,100533.80
2023-02-22T09:55:04.905Z,100530.10
2023-02-22T09:57:40.618Z,100536.45
2023-02-22T10:00:20.122Z,100537.15
2023-02-22T10:03:34.911Z,100539.36
2023-02-22T10:06:12.078Z,100538.27
2023-02-22T10:08:41.102Z,100542.52
2023-02-22T10:11:16.296Z,100543.88
2023-02-22T10:13:53.575Z,100543.58
2023-02-22T10:16:26.809Z,100546.02
2023-02-22T10:19:15.821Z,100546.83
2023-02-22T10:21:53.931Z,100545.42
2023-02-22T10:24:42.699Z,100547.94
2023-02-22T10:27:19.153Z,100550.09
2023-02-22T10:29:54.624Z,100549.65
2023-02-22T10:32:29.753Z,100546.69
2023-02-22T10:35:00.967Z,100547.62
2023-02-22T10:37:33.009Z,100547.45
2023-02-22T10:40:23.161Z,100549.86
2023-02-22T10:42:51.105Z,100545.25
2023-02-22T10:45:32.871Z,100545.06
2023-02-22T10:48:11.803Z,100547.48
2023-02-22T10:50:44.264Z,100544.94
2023-02-22T10:53:13.646Z,100548.21
2023-02-22T10:56:27.787Z,100545.84
2023-02-22T10:59:02.649Z,100545.17
2023-02-22T11:01:38.143Z,100553.61
2023-02-22T11:04:21.925Z,100550.23
2023-02-22T11:06:59.145Z,100549.42
2023-02-22T11:09:29.144Z,100549.78
2023-02-22T11:12:16.611Z,100549.44
2023-02-22T11:14:44.792Z,100547.13
2023-02-22T11:17:22.582Z,100541.71
2023-02-22T11:19:51.452Z,100538.53
2023-02-22T11:22:24.928Z,100543.48
2023-02-22T11:24:59.432Z,100542.71
2023-02-22T11:27:40.793Z,100549.45
2023-02-22T11:30:12.045Z,100552.60
2023-02-22T11:32:53.598Z,100558.17
2023-02-22T11:35:59.555Z,100566.85
2023-02-22T11:38:31.975Z,100570.38
2023-02-22T11:41:06.347Z,100571.13
2023-02-22T11:43:34.919Z,100567.70
2023-02-22T11:46:12.246Z,100573.69
2023-02-22T11:48:56.659Z,100575.44
2023-02-22T11:51:45.241Z,100580.59
2023-02-22T11:54:38.573Z,100574.60
2023-02-22T11:57:16.182Z,100576.67
2023-02-22T12:00:47.017Z,100577.52
2023-02-22T12:03:15.222Z,100578.55
2023-02-22T12:05:59.825Z,100579.94
2023-02-22T12:09:03.555Z,100578.05
2023-02-22T12:11:37.866Z,100577.55
2023-02-22T12:14:19.376Z,100587.98
2023-02-22T12:16:59.327Z,100580.80
2023-02-22T12:19:39.269Z,100580.80
2023-02-22T12:22:17.252Z,100581.83
2023-02-22T12:25:09.337Z,100588.16
2023-02-22T12:27:49.482Z,100585.58
2023-02-22T12:30:26.371Z,100588.66
2023-02-22T12:32:59.871Z,100592.44
2023-02-22T12:35:49.223Z,100588.84
2023-02-22T12:38:34.155Z,100595.17
2023-02-22T12:41:13.803Z,100598.08
2023-02-22T12:43:55.944Z,100601.34
2023-02-22T12:46:47.938Z,100602.52
2023-02-22T12:49:42.220Z,100598.91
2023-02-22T12:52:46.951Z,100602.69
2023-02-22T12:55:21.910Z,100604.41
2023-02-22T12:58:16.477Z,100608.16
2023-02-22T13:00:57.056Z,100610.05
2023-02-22T13:03:54.402Z,100612.77
2023-02-22T13:06:51.844Z,100611.92
2023-02-22T13:09:42.472Z,100616.55
2023-02-22T13:12:31.952Z,100620.98
2023-02-22T13:15:04.627Z,100624.58
2023-02-22T13:18:01.973Z,100628.38
2023-02-22T13:20:42.329Z,100631.98
2023-02-22T13:23:42.479Z,100631.66
2023-02-22T13:26:26.393Z,100632.86
2023-02-22T13:29:09.009Z,100637.64
2023-02-22T13:31:49.817Z,100640.55
2023-02-22T13:34:31.013Z,100641.07
2023-02-22T13:37:18.064Z,100644.33
2023-02-22T13:39:55.757Z,100640.22
2023-02-22T13:42:40.920Z,100646.73
2023-02-22T13:45:38.219Z,100645.19
2023-02-22T13:48:24.685Z,100643.30
2023-02-22T13:51:11.598Z,100642.77
2023-02-22T13:53:54.617Z,100639.52
2023-02-22T13:56:27.011Z,100637.98
2023-02-22T13:59:03.567Z,100638.67
2023-02-22T14:01:45.893Z,100638.84
2023-02-22T14:04:29.500Z,100640.05
2023-02-22T14:07:03.018Z,100640.39
2023-02-22T14:09:50.564Z,100638.33
2023-02-22T14:12:30.991Z,100641.24
2023-02-22T14:15:26.774Z,100640.38
2023-02-22T14:17:57.039Z,100646.70
2023-02-22T14:20:32.821Z,100643.44
2023-02-22T14:23:30.072Z,100648.23
2023-02-22T14:26:24.513Z,100651.98
2023-02-22T14:28:58.904Z,100651.96
2023-02-22T14:31:53.901Z,100650.24
2023-02-22T14:34:31.589Z,100650.58
2023-02-22T14:37:07.759Z,100651.60
2023-02-22T14:39:51.261Z,100659.79
2023-02-22T14:42:30.412Z,100660.63
2023-02-22T14:45:20.460Z,100658.39
2023-02-22T14:48:14.471Z,100659.56
2023-02-22T14:50:45.387Z,100660.23
2023-02-22T14:53:13.381Z,100659.72
2023-02-22T14:55:54.556Z,100664.33
2023-02-22T14:58:29.992Z,100664.84
2023-02-22T15:00:58.553Z,100663.61
2023-02-22T15:03:33.326Z,100665.11
2023-02-22T15:06:18.649Z,100659.98
2023-02-22T15:08:49.063Z,100661.67
2023-02-22T15:11:31.235Z,100658.77
2023-02-22T15:14:00.989Z,100659.04
2023-02-22T15:16:32.091Z,100660.23
2023-02-22T15:19:07.788Z,100662.42
2023-02-22T15:21:36.071Z,100664.61
2023-02-22T15:24:07.871Z,100665.29
2023-02-22T15:26:44.264Z,100664.09
2023-02-22T15:29:21.367Z,100666.29
2023-02-22T15:31:50.105Z,100668.16
2023-02-22T15:34:24.561Z,100666.59
2023-02-22T15:36:57.690Z,100670.50
2023-02-22T15:39:29.794Z,100673.38
2023-02-22T15:42:06.299Z,100668.90
2023-02-22T15:44:43.505Z,100673.48
2023-02-22T15:47:19.755Z,100677.72
2023-02-22T15:50:21.709Z,100678.21
2023-02-22T15:53:24.639Z,100681.41
2023-02-22T15:56:00.013Z,100685.44
2023-02-22T15:58:30.175Z,100687.95
2023-02-22T16:01:02.839Z,100691.30
2023-02-22T16:03:53.438Z,100697.55
2023-02-22T16:06:31.195Z,100700.95
2023-02-22T16:09:06.989Z,100702.62
2023-02-22T16:11:44.443Z,100702.23
2023-02-22T16:14:36.114Z,100709.88
2023-02-22T16:17:37.215Z,100710.54
2023-02-22T16:20:11.511Z,100716.15
2023-02-22T16:22:41.320Z,100713.39
2023-02-22T16:25:16.933Z,100716.08
2023-02-22T16:27:50.344Z,100726.12
2023-02-22T16:30:24.377Z,100724.06
2023-02-22T16:32:56.237Z,100731.56
2023-02-22T16:35:29.445Z,100729.17
2023-02-22T16:38:17.073Z,100732.36
2023-02-22T16:40:55.438Z,100736.10
2023-02-22T16:43:29.622Z,100741.52
2023-02-22T16:45:58.324Z,100747.10
2023-02-22T16:48:30.312Z,100745.04
2023-02-22T16:51:09.109Z,100747.21
2023-02-22T16:53:37.545Z,100750.59
2023-02-22T16:56:09.859Z,100746.27
2023-02-22T16:58:40.554Z,100752.90
2023-02-22T17:01:09.694Z,100753.57
2023-02-22T17:03:37.655Z,100756.80
2023-02-22T17:06:06.342Z,100753.88
2023-02-22T17:08:34.343Z,100758.13
2023-02-22T17:11:03.248Z,100758.97
2023-02-22T17:13:31.489Z,100761.52
2023-02-22T17:15:59.539Z,100766.96
2023-02-22T17:18:30.422Z,100770.86
2023-02-22T17:20:58.399Z,100773.94
2023-02-22T17:23:27.871Z,100773.08
2023-02-22T17:26:04.564Z,100772.55
2023-02-22T17:28:32.698Z,100772.38
2023-02-22T17:31:02.108Z,100771.53
2023-02-22T17:33:33.558Z,100763.31
2023-02-22T17:36:03.827Z,100765.50
2023-02-22T17:38:32.537Z,100767.86
2023-02-22T17:41:02.418Z,100769.38
2023-02-22T17:43:30.465Z,100767.16
2023-02-22T17:45:58.593Z,100766.85
2023-02-22T17:48:27.308Z,100764.76
2023-02-22T17:50:55.581Z,100762.16
2023-02-22T17:53:25.080Z,100765.20
2023-02-22T17:55:53.424Z,100763.46
2023-02-22T17:58:22.832Z,100762.59
2023-02-22T18:00:51.060Z,100764.45
2023-02-22T18:03:25.993Z,100764.64
2023-02-22T18:05:57.721Z,100767.84
2023-02-22T18:08:28.384Z,100763.39
2023-02-22T18:10:56.958Z,100768.62
2023-02-22T18:13:27.291Z,100767.36
2023-02-22T18:16:00.339Z,100767.77
2023-02-22T18:18:29.150Z,100771.66
2023-02-22T18:21:00.015Z,100774.33
2023-02-22T18:23:31.134Z,100777.23
2023-02-22T18:26:11.164Z,100780.63
2023-02-22T18:28:40.822Z,100782.86
2023-02-22T18:31:14.935Z,100783.73
2023-02-22T18:33:44.709Z,100786.80
2023-02-22T18:36:14.436Z,100789.71
2023-02-22T18:38:43.487Z,100783.75
2023-02-22T18:41:14.341Z,100784.79
2023-02-22T18:43:42.725Z,100789.59
2023-02-22T18:46:16.401Z,100786.02
2023-02-22T18:48:45.975Z,100786.04
2023-02-22T18:51:17.482Z,100783.49
2023-02-22T18:53:47.656Z,100784.54
2023-02-22T18:56:22.226Z,100779.27
2023-02-22T18:58:54.739Z,100774.83
2023-02-22T19:01:23.238Z,100774.65
2023-02-22T19:03:52.042Z,100773.98
2023-02-22T19:06:22.754Z,100774.83
2023-02-22T19:08:51.713Z,100774.65
2023-02-22T19:11:22.221Z,100772.59
2023-02-22T19:13:52.782Z,100774.95
2023-02-22T19:16:22.911Z,100777.17
2023-02-22T19:18:54.397Z,100773.61
2023-02-22T19:21:22.928Z,100777.35
2023-02-22T19:23:51.630Z,100778.55
2023-02-22T19:26:25.777Z,100776.52
2023-02-22T19:28:56.027Z,100777.20
2023-02-22T19:31:29.726Z,100777.70
2023-02-22T19:34:03.884Z,100775.46
2023-02-22T19:36:32.770Z,100777.15
2023-02-22T19:39:04.820Z,100782.38
2023-02-22T19:41:32.910Z,100790.23
2023-02-22T19:44:01.769Z,100792.08
2023-02-22T19:46:30.150Z,100792.40
2023-02-22T19:48:58.829Z,100797.20
2023-02-22T19:51:28.796Z,100801.11
2023-02-22T19:54:02.765Z,100805.02
2023-02-22T19:56:31.872Z,100803.02
2023-02-22T19:59:13.135Z,100798.65
2023-02-22T20:01:44.636Z,100794.02
2023-02-22T20:04:18.394Z,100799.13
2023-02-22T20:06:48.431Z,100796.92
2023-02-22T20:09:23.467Z,100799.97
2023-02-22T20:11:54.682Z,100802.17
2023-02-22T20:14:26.200Z,100800.10
2023-02-22T20:16:55.714Z,100804.52
2023-02-22T20:19:24.729Z,100805.69
2023-02-22T20:21:55.927Z,100807.04
2023-02-22T20:24:24.968Z,100808.95
2023-02-22T20:26:55.970Z,100806.73
2023-02-22T20:29:29.708Z,100806.05
2023-02-22T20:32:00.234Z,100809.77
2023-02-22T20:34:33.504Z,100811.59
2023-02-22T20:37:02.623Z,100810.73
2023-02-22T20:39:31.310Z,100813.96
2023-02-22T20:42:00.751Z,100814.65
2023-02-22T20:44:28.943Z,100811.21
2023-02-22T20:46:57.278Z,100810.02
2023-02-22T20:49:27.314Z,100811.52
2023-02-22T20:51:55.292Z,100808.79
2023-02-22T20:54:23.316Z,100811.12
2023-02-22T20:56:53.047Z,100806.01
2023-02-22T20:59:22.147Z,100812.11
2023-02-22T21:01:50.641Z,100809.55
2023-02-22T21:04:19.146Z,100809.88
2023-02-22T21:06:47.262Z,100809.90
2023-02-22T21:09:17.891Z,100807.50
2023-02-22T21:11:46.830Z,100809.02
2023-02-22T21:14:19.980Z,100806.98
2023-02-22T21:16:50.479Z,100807.96
2023-02-22T21:19:25.852Z,100804.04
2023-02-22T21:21:58.893Z,100805.17
2023-02-22T21:24:29.126Z,100801.89
2023-02-22T21:27:00.806Z,100805.08
2023-02-22T21:29:29.455Z,100802.66
2023-02-22T21:31:57.824Z,100803.87
2023-02-22T21:34:26.368Z,100804.88
2023-02-22T21:36:54.543Z,100812.70
2023-02-22T21:39:22.927Z,100813.53
2023-02-22T21:41:52.263Z,100811.30
2023-02-22T21:44:21.408Z,100815.04
2023-02-22T21:46:50.046Z,100817.79
2023-02-22T21:49:22.777Z,100815.78
2023-02-22T21:51:51.927Z,100815.80
2023-02-22T21:54:21.640Z,100817.64
2023-02-22T21:56:52.734Z,100817.10
2023-02-22T21:59:24.071Z,100814.89
2023-02-22T22:01:56.423Z,100814.71
2023-02-22T22:04:30.139Z,100808.77
2023-02-22T22:07:01.422Z,100811.31
2023-02-22T22:09:33.128Z,100815.39
2023-02-22T22:12:05.475Z,100812.27
2023-02-22T22:14:35.424Z,100816.34
2023-02-22T22:17:05.921Z,100816.47
2023-02-22T22:19:40.680Z,100813.19
2023-02-22T22:22:09.060Z,100813.48
2023-02-22T22:24:37.975Z,100813.77
2023-02-22T22:27:09.716Z,100811.34
2023-02-22T22:29:37.882Z,100807.88
2023-02-22T22:32:06.857Z,100810.05
2023-02-22T22:34:38.108Z,100806.01
2023-02-22T22:37:06.644Z,100810.87
2023-02-22T22:39:34.760Z,100811.40
2023-02-22T22:42:02.736Z,100814.41
2023-02-22T22:44:33.078Z,100815.23
2023-02-22T22:47:01.400Z,100816.75
2023-02-22T22:49:31.555Z,100813.81
2023-02-22T22:51:59.887Z,100816.04
2023-02-22T22:54:29.072Z,100820.30
2023-02-22T22:56:57.232Z,100820.91
2023-02-22T22:59:25.507Z,100816.92
2023-02-22T23:01:56.782Z,100816.53
2023-02-22T23:04:25.718Z,100818.40
2023-02-22T23:06:54.919Z,100813.30
2023-02-22T23:09:24.727Z,100811.60
2023-02-22T23:12:00.629Z,100815.17
2023-02-22T23:14:31.388Z,100817.04
2023-02-22T23:17:03.821Z,100816.79
2023-02-22T23:19:37.006Z,100817.90
2023-02-22T23:22:07.070Z,100815.98
2023-02-22T23:24:36.875Z,100817.48
2023-02-22T23:27:10.845Z,100819.80
2023-02-22T23:29:41.627Z,100819.88
2023-02-22T23:32:09.787Z,100816.40
2023-02-22T23:34:41.295Z,100811.33
2023-02-22T23:37:11.034Z,100807.95
2023-02-22T23:39:39.264Z,100810.17
2023-02-22T23:42:10.343Z,100805.18
2023-02-22T23:44:40.017Z,100806.70
2023-02-22T23:47:09.834Z,100806.91
2023-02-22T23:49:38.935Z,100804.52
2023-02-22T23:52:08.523Z,100798.55
2023-02-22T23:54:40.473Z,100794.78
2023-02-22T23:57:09.088Z,100793.94
2023-02-22T23:59:40.594Z,100792.08
